createdAt,value
2022-09-23T00:01:18.933Z,99198.47
2022-09-23T00:03:46.709Z,99204.75
2022-09-23T00:06:21.058Z,99204.75
2022-09-23T00:08:51.762Z,99204.22
2022-09-23T00:11:22.843Z,99205.38
2022-09-23T00:13:54.341Z,99201.75
2022-09-23T00:16:29.301Z,99206.06
2022-09-23T00:18:56.339Z,99206.13
2022-09-23T00:21:23.818Z,99199.25
2022-09-23T00:23:51.029Z,99196.97
2022-09-23T00:26:21.374Z,99197.09
2022-09-23T00:28:50.222Z,99197.28
2022-09-23T00:31:23.887Z,99191.88
2022-09-23T00:34:01.579Z,99192.75
2022-09-23T00:36:30.333Z,99191.75
2022-09-23T00:38:57.470Z,99190.16
2022-09-23T00:41:25.461Z,99189.41
2022-09-23T00:43:56.873Z,99193.00
2022-09-23T00:46:39.923Z,99183.50
2022-09-23T00:49:14.095Z,99180.97
2022-09-23T00:51:55.832Z,99181.97
2022-09-23T00:54:27.514Z,99179.56
2022-09-23T00:56:57.635Z,99181.34
2022-09-23T00:59:26.166Z,99184.00
2022-09-23T01:01:57.506Z,99182.50
2022-09-23T01:04:28.995Z,99178.28
2022-09-23T01:06:55.766Z,99170.75
2022-09-23T01:09:24.334Z,99179.41
2022-09-23T01:12:07.367Z,99181.13
2022-09-23T01:15:08.371Z,99175.03
2022-09-23T01:18:06.460Z,99173.38
2022-09-23T01:20:59.290Z,99175.53
2022-09-23T01:24:07.929Z,99166.94
2022-09-23T01:26:53.519Z,99164.13
2022-09-23T01:30:04.631Z,99159.22
2022-09-23T01:33:08.187Z,99158.03
2022-09-23T01:36:08.445Z,99158.25
2022-09-23T01:38:59.142Z,99158.44
2022-09-23T01:41:32.325Z,99155.16
2022-09-23T01:44:53.275Z,99148.19
2022-09-23T01:47:56.103Z,99153.69
2022-09-23T01:50:50.624Z,99148.72
2022-09-23T01:53:46.019Z,99154.03
2022-09-23T01:56:26.226Z,99146.09
2022-09-23T01:59:05.446Z,99153.19
2022-09-23T02:01:42.628Z,99157.66
2022-09-23T02:04:22.491Z,99145.84
2022-09-23T02:07:05.513Z,99152.78
2022-09-23T02:09:42.299Z,99156.59
2022-09-23T02:12:17.299Z,99144.06
2022-09-23T02:14:52.724Z,99149.91
2022-09-23T02:17:39.645Z,99153.31
2022-09-23T02:20:07.916Z,99152.88
2022-09-23T02:22:42.656Z,99148.66
2022-09-23T02:25:12.477Z,99151.34
2022-09-23T02:28:06.978Z,99147.81
2022-09-23T02:30:59.366Z,99153.16
2022-09-23T02:33:46.293Z,99151.25
2022-09-23T02:36:29.171Z,99141.63
2022-09-23T02:39:03.784Z,99144.94
2022-09-23T02:41:34.178Z,99142.97
2022-09-23T02:44:09.164Z,99140.28
2022-09-23T02:46:37.899Z,99145.56
2022-09-23T02:49:15.154Z,99146.13
2022-09-23T02:51:42.841Z,99142.72
2022-09-23T02:54:17.265Z,99137.47
2022-09-23T02:56:44.508Z,99136.44
2022-09-23T02:59:13.112Z,99134.88
2022-09-23T03:01:56.596Z,99135.81
2022-09-23T03:05:00.145Z,99137.63
2022-09-23T03:07:58.531Z,99135.81
2022-09-23T03:10:54.761Z,99133.25
2022-09-23T03:13:51.146Z,99126.31
2022-09-23T03:16:50.363Z,99127.13
2022-09-23T03:19:37.878Z,99127.13
2022-09-23T03:22:22.865Z,99123.41
2022-09-23T03:24:54.144Z,99123.38
2022-09-23T03:27:29.102Z,99124.59
2022-09-23T03:29:57.389Z,99121.13
2022-09-23T03:32:29.410Z,99120.22
2022-09-23T03:35:03.212Z,99116.72
2022-09-23T03:37:40.047Z,99115.69
2022-09-23T03:40:22.922Z,99113.59
2022-09-23T03:42:51.308Z,99112.66
2022-09-23T03:45:26.644Z,99114.53
2022-09-23T03:47:53.673Z,99107.84
2022-09-23T03:50:21.341Z,99103.69
2022-09-23T03:52:49.627Z,99105.25
2022-09-23T03:55:19.282Z,99105.34
2022-09-23T03:57:46.682Z,99101.00
2022-09-23T04:00:15.076Z,99100.97
2022-09-23T04:02:42.872Z,99098.38
2022-09-23T04:05:11.803Z,99101.19
2022-09-23T04:07:39.295Z,99097.75
2022-09-23T04:10:07.258Z,99108.53
2022-09-23T04:12:34.281Z,99095.28
2022-09-23T04:15:01.059Z,99093.47
2022-09-23T04:17:28.118Z,99093.38
2022-09-23T04:19:55.071Z,99087.31
2022-09-23T04:22:22.193Z,99084.94
2022-09-23T04:24:49.299Z,99088.50
2022-09-23T04:27:16.146Z,99080.69
2022-09-23T04:29:43.004Z,99078.75
2022-09-23T04:32:10.252Z,99078.50
2022-09-23T04:34:37.121Z,99082.09
2022-09-23T04:37:04.281Z,99083.00
2022-09-23T04:39:31.434Z,99076.00
2022-09-23T04:41:58.302Z,99082.13
2022-09-23T04:44:26.802Z,99073.44
2022-09-23T04:46:53.937Z,99076.88
2022-09-23T04:49:20.910Z,99083.19
2022-09-23T04:51:47.903Z,99083.41
2022-09-23T04:54:15.160Z,99078.88
2022-09-23T04:56:42.683Z,99081.63
2022-09-23T04:59:09.662Z,99080.72
2022-09-23T05:01:37.966Z,99083.66
2022-09-23T05:04:10.143Z,99083.78
2022-09-23T05:06:37.262Z,99086.19
2022-09-23T05:09:08.049Z,99081.50
2022-09-23T05:11:35.294Z,99084.00
2022-09-23T05:14:03.200Z,99078.78
2022-09-23T05:16:30.251Z,99085.88
2022-09-23T05:18:58.092Z,99083.28
2022-09-23T05:21:28.923Z,99087.59
2022-09-23T05:24:00.504Z,99082.34
2022-09-23T05:26:31.217Z,99086.75
2022-09-23T05:28:59.270Z,99092.31
2022-09-23T05:31:30.631Z,99097.94
2022-09-23T05:34:04.769Z,99095.31
2022-09-23T05:36:38.428Z,99099.59
2022-09-23T05:39:08.501Z,99093.56
2022-09-23T05:41:36.621Z,99100.44
2022-09-23T05:44:04.219Z,99095.19
2022-09-23T05:46:32.057Z,99098.31
2022-09-23T05:49:02.886Z,99099.31
2022-09-23T05:51:38.517Z,99094.91
2022-09-23T05:54:05.656Z,99099.13
2022-09-23T05:56:34.408Z,99093.66
2022-09-23T05:59:02.569Z,99099.63
2022-09-23T06:01:34.232Z,99091.66
2022-09-23T06:04:05.620Z,99103.31
2022-09-23T06:06:39.454Z,99106.09
2022-09-23T06:09:11.279Z,99099.84
2022-09-23T06:11:38.300Z,99101.66
2022-09-23T06:14:06.017Z,99107.81
2022-09-23T06:16:35.749Z,99109.09
2022-09-23T06:19:07.954Z,99114.00
2022-09-23T06:21:38.858Z,99107.75
2022-09-23T06:24:09.346Z,99111.16
2022-09-23T06:26:38.330Z,99108.78
2022-09-23T06:29:14.517Z,99115.88
2022-09-23T06:31:42.047Z,99121.03
2022-09-23T06:34:14.614Z,99120.91
2022-09-23T06:36:45.948Z,99115.13
2022-09-23T06:39:16.843Z,99125.63
2022-09-23T06:41:45.334Z,99120.28
2022-09-23T06:44:14.553Z,99114.88
2022-09-23T06:46:43.032Z,99113.03
2022-09-23T06:49:10.677Z,99105.16
2022-09-23T06:51:37.791Z,99112.97
2022-09-23T06:54:05.054Z,99118.78
2022-09-23T06:56:37.767Z,99119.34
2022-09-23T06:59:07.726Z,99106.44
2022-09-23T07:01:34.905Z,99115.00
2022-09-23T07:04:02.171Z,99113.03
2022-09-23T07:06:28.985Z,99113.94
2022-09-23T07:08:56.024Z,99118.03
2022-09-23T07:11:23.109Z,99112.59
2022-09-23T07:13:50.707Z,99111.69
2022-09-23T07:16:17.865Z,99117.72
2022-09-23T07:18:45.705Z,99128.53
2022-09-23T07:21:18.639Z,99123.09
2022-09-23T07:23:50.179Z,99120.31
2022-09-23T07:26:19.317Z,99121.66
2022-09-23T07:28:47.118Z,99126.53
2022-09-23T07:31:37.945Z,99130.66
2022-09-23T07:34:10.318Z,99127.00
2022-09-23T07:36:41.275Z,99126.94
2022-09-23T07:39:12.222Z,99132.13
2022-09-23T07:41:44.719Z,99132.84
2022-09-23T07:44:12.513Z,99138.09
2022-09-23T07:46:40.158Z,99133.72
2022-09-23T07:49:08.069Z,99135.50
2022-09-23T07:51:38.787Z,99138.06
2022-09-23T07:54:11.414Z,99141.63
2022-09-23T07:56:39.391Z,99145.88
2022-09-23T07:59:10.963Z,99142.28
2022-09-23T08:01:44.272Z,99142.78
2022-09-23T08:04:17.877Z,99141.69
2022-09-23T08:06:52.352Z,99140.84
2022-09-23T08:09:23.761Z,99138.91
2022-09-23T08:11:51.422Z,99133.66
2022-09-23T08:14:19.211Z,99131.06
2022-09-23T08:16:47.673Z,99130.09
2022-09-23T08:19:16.016Z,99129.09
2022-09-23T08:21:46.689Z,99125.38
2022-09-23T08:24:21.958Z,99123.44
2022-09-23T08:26:49.423Z,99126.78
2022-09-23T08:29:19.236Z,99124.06
2022-09-23T08:31:47.219Z,99124.81
2022-09-23T08:34:14.407Z,99118.16
2022-09-23T08:36:41.287Z,99122.94
2022-09-23T08:39:10.010Z,99118.31
2022-09-23T08:42:05.284Z,99113.56
2022-09-23T08:44:47.075Z,99110.59
2022-09-23T08:47:32.338Z,99111.84
2022-09-23T08:50:08.888Z,99105.25
2022-09-23T08:52:57.261Z,99105.78
2022-09-23T08:55:40.365Z,99099.28
2022-09-23T08:58:25.409Z,99099.78
2022-09-23T09:00:59.638Z,99101.06
2022-09-23T09:03:55.487Z,99100.75
2022-09-23T09:06:53.048Z,99098.59
2022-09-23T09:09:53.133Z,99095.59
2022-09-23T09:12:38.022Z,99098.75
2022-09-23T09:15:19.507Z,99093.19
2022-09-23T09:18:02.415Z,99084.81
2022-09-23T09:20:59.616Z,99079.88
2022-09-23T09:23:49.707Z,99084.84
2022-09-23T09:26:26.683Z,99079.16
2022-09-23T09:29:36.381Z,99080.53
2022-09-23T09:32:28.477Z,99077.44
2022-09-23T09:35:05.596Z,99071.72
2022-09-23T09:37:45.922Z,99070.56
2022-09-23T09:40:16.375Z,99072.75
2022-09-23T09:42:49.633Z,99066.25
2022-09-23T09:45:35.038Z,99061.53
2022-09-23T09:48:17.731Z,99061.16
2022-09-23T09:50:51.976Z,99053.72
2022-09-23T09:53:19.264Z,99052.66
2022-09-23T09:56:07.843Z,99050.66
2022-09-23T09:59:02.005Z,99052.97
2022-09-23T10:01:35.228Z,99046.56
2022-09-23T10:04:19.398Z,99040.75
2022-09-23T10:07:15.684Z,99037.81
2022-09-23T10:09:51.248Z,99034.84
2022-09-23T10:12:23.911Z,99023.97
2022-09-23T10:14:56.885Z,99040.34
2022-09-23T10:17:33.443Z,99025.94
2022-09-23T10:20:15.340Z,99030.00
2022-09-23T10:22:43.301Z,99026.31
2022-09-23T10:25:26.673Z,99025.16
2022-09-23T10:27:53.983Z,99016.81
2022-09-23T10:30:27.794Z,99022.66
2022-09-23T10:32:57.070Z,99018.81
2022-09-23T10:35:28.064Z,99014.28
2022-09-23T10:37:57.814Z,99013.28
2022-09-23T10:41:01.639Z,99019.22
2022-09-23T10:44:36.155Z,99008.22
2022-09-23T10:47:25.323Z,99010.44
2022-09-23T10:50:11.242Z,99005.59
2022-09-23T10:53:09.959Z,99004.66
2022-09-23T10:56:15.162Z,99004.56
2022-09-23T10:59:36.233Z,98997.41
2022-09-23T11:02:25.309Z,98983.63
2022-09-23T11:05:39.277Z,98983.38
2022-09-23T11:08:44.937Z,98978.94
2022-09-23T11:11:31.047Z,98971.44
2022-09-23T11:14:50.348Z,98964.16
2022-09-23T11:18:06.563Z,98963.22
2022-09-23T11:21:05.068Z,98959.53
2022-09-23T11:24:02.695Z,98956.47
2022-09-23T11:27:10.299Z,98949.00
2022-09-23T11:30:18.031Z,98943.25
2022-09-23T11:33:19.629Z,98936.75
2022-09-23T11:35:56.797Z,98939.84
2022-09-23T11:38:37.258Z,98934.53
2022-09-23T11:41:32.199Z,98931.88
2022-09-23T11:44:13.729Z,98929.81
2022-09-23T11:46:55.945Z,98932.47
2022-09-23T11:49:35.014Z,98929.00
2022-09-23T11:52:19.613Z,98928.06
2022-09-23T11:55:32.654Z,98918.31
2022-09-23T11:58:25.800Z,98920.97
2022-09-23T12:01:16.865Z,98912.91
2022-09-23T12:03:55.564Z,98905.53
2022-09-23T12:06:32.469Z,98907.16
2022-09-23T12:09:41.043Z,98904.41
2022-09-23T12:12:31.849Z,98896.94
2022-09-23T12:15:19.571Z,98896.56
2022-09-23T12:18:35.908Z,98893.63
2022-09-23T12:21:48.777Z,98886.41
2022-09-23T12:24:47.586Z,98885.41
2022-09-23T12:27:39.622Z,98881.78
2022-09-23T12:30:18.117Z,98878.84
2022-09-23T12:32:45.916Z,98875.75
2022-09-23T12:35:30.406Z,98878.09
2022-09-23T12:38:01.329Z,98863.41
2022-09-23T12:40:44.797Z,98860.41
2022-09-23T12:43:29.483Z,98854.31
2022-09-23T12:46:27.756Z,98866.13
2022-09-23T12:48:57.373Z,98858.41
2022-09-23T12:51:28.066Z,98850.88
2022-09-23T12:54:04.729Z,98854.75
2022-09-23T12:56:37.769Z,98850.59
2022-09-23T12:59:19.833Z,98856.34
2022-09-23T13:01:47.358Z,98846.16
2022-09-23T13:04:53.307Z,98848.63
2022-09-23T13:07:30.916Z,98843.31
2022-09-23T13:10:15.296Z,98847.03
2022-09-23T13:12:46.154Z,98841.53
2022-09-23T13:15:30.404Z,98843.22
2022-09-23T13:18:20.866Z,98837.59
2022-09-23T13:20:50.946Z,98835.13
2022-09-23T13:23:25.876Z,98829.81
2022-09-23T13:26:00.391Z,98826.94
2022-09-23T13:28:53.618Z,98822.56
2022-09-23T13:31:21.349Z,98824.28
2022-09-23T13:34:07.644Z,98815.44
2022-09-23T13:36:45.396Z,98817.03
2022-09-23T13:39:29.418Z,98808.13
2022-09-23T13:42:03.011Z,98800.13
2022-09-23T13:44:31.107Z,98798.97
2022-09-23T13:47:02.331Z,98790.78
2022-09-23T13:49:38.447Z,98789.06
2022-09-23T13:52:05.596Z,98791.72
2022-09-23T13:54:50.675Z,98774.06
2022-09-23T13:57:34.021Z,98778.63
2022-09-23T14:00:11.684Z,98782.97
2022-09-23T14:02:46.947Z,98784.59
2022-09-23T14:05:27.260Z,98781.84
2022-09-23T14:07:56.849Z,98785.44
2022-09-23T14:10:27.962Z,98775.53
2022-09-23T14:12:56.953Z,98779.91
2022-09-23T14:15:26.942Z,98786.94
2022-09-23T14:18:04.679Z,98780.25
2022-09-23T14:20:31.816Z,98768.09
2022-09-23T14:23:14.039Z,98768.63
2022-09-23T14:25:44.797Z,98761.22
2022-09-23T14:28:18.473Z,98765.59
2022-09-23T14:30:48.171Z,98759.31
2022-09-23T14:33:19.876Z,98754.66
2022-09-23T14:35:53.566Z,98756.22
2022-09-23T14:38:47.629Z,98752.41
2022-09-23T14:41:26.531Z,98748.69
2022-09-23T14:43:58.663Z,98744.09
2022-09-23T14:46:33.375Z,98746.56
2022-09-23T14:49:16.542Z,98735.91
2022-09-23T14:51:54.862Z,98742.06
2022-09-23T14:54:39.942Z,98734.94
2022-09-23T14:57:29.211Z,98728.75
2022-09-23T15:00:06.576Z,98726.84
2022-09-23T15:02:42.264Z,98723.41
2022-09-23T15:05:13.002Z,98720.75
2022-09-23T15:07:40.371Z,98718.31
2022-09-23T15:10:16.320Z,98723.66
2022-09-23T15:12:46.325Z,98718.31
2022-09-23T15:15:15.121Z,98719.38
2022-09-23T15:17:43.294Z,98714.25
2022-09-23T15:20:16.462Z,98723.44
2022-09-23T15:22:56.164Z,98718.19
2022-09-23T15:25:35.576Z,98722.78
2022-09-23T15:28:08.396Z,98721.28
2022-09-23T15:30:37.336Z,98720.53
2022-09-23T15:33:05.086Z,98724.34
2022-09-23T15:35:33.128Z,98718.25
2022-09-23T15:38:02.228Z,98715.56
2022-09-23T15:40:36.760Z,98719.13
2022-09-23T15:43:26.553Z,98703.03
2022-09-23T15:45:58.691Z,98716.34
2022-09-23T15:48:42.790Z,98706.75
2022-09-23T15:51:15.302Z,98706.75
2022-09-23T15:53:42.948Z,98695.44
2022-09-23T15:56:09.814Z,98694.72
2022-09-23T15:58:36.837Z,98694.91
2022-09-23T16:01:04.309Z,98692.47
2022-09-23T16:03:31.454Z,98698.09
2022-09-23T16:06:03.002Z,98685.00
2022-09-23T16:08:33.022Z,98691.38
2022-09-23T16:11:00.355Z,98690.72
2022-09-23T16:13:27.455Z,98679.44
2022-09-23T16:15:54.425Z,98679.63
2022-09-23T16:18:21.308Z,98686.88
2022-09-23T16:20:50.237Z,98679.84
2022-09-23T16:23:39.810Z,98678.34
2022-09-23T16:26:17.899Z,98673.03
2022-09-23T16:28:47.796Z,98676.72
2022-09-23T16:31:16.568Z,98680.56
2022-09-23T16:33:46.107Z,98680.78
2022-09-23T16:36:24.118Z,98676.47
2022-09-23T16:38:51.389Z,98688.19
2022-09-23T16:41:18.471Z,98683.19
2022-09-23T16:43:45.578Z,98684.34
2022-09-23T16:46:16.448Z,98681.78
2022-09-23T16:48:51.374Z,98682.06
2022-09-23T16:51:23.116Z,98678.88
2022-09-23T16:53:51.563Z,98679.25
2022-09-23T16:56:27.257Z,98677.75
2022-09-23T16:58:56.008Z,98668.16
2022-09-23T17:01:47.074Z,98675.41
2022-09-23T17:04:18.361Z,98679.22
2022-09-23T17:06:50.980Z,98680.25
2022-09-23T17:09:29.230Z,98679.41
2022-09-23T17:12:15.517Z,98673.44
2022-09-23T17:14:43.782Z,98671.03
2022-09-23T17:17:10.612Z,98683.59
2022-09-23T17:19:41.341Z,98676.63
2022-09-23T17:22:09.256Z,98674.19
2022-09-23T17:24:36.180Z,98673.31
2022-09-23T17:27:03.452Z,98679.63
2022-09-23T17:29:30.781Z,98664.59
2022-09-23T17:31:58.178Z,98670.84
2022-09-23T17:34:25.268Z,98672.69
2022-09-23T17:36:52.541Z,98667.53
2022-09-23T17:39:20.180Z,98662.44
2022-09-23T17:41:47.398Z,98667.00
2022-09-23T17:44:17.707Z,98660.81
2022-09-23T17:46:44.598Z,98669.75
2022-09-23T17:49:11.441Z,98669.00
2022-09-23T17:51:46.451Z,98669.09
2022-09-23T17:54:15.738Z,98669.28
2022-09-23T17:56:44.171Z,98667.69
2022-09-23T17:59:13.117Z,98676.50
2022-09-23T18:01:40.470Z,98673.19
2022-09-23T18:04:08.056Z,98667.97
2022-09-23T18:06:39.176Z,98672.63
2022-09-23T18:09:08.936Z,98671.03
2022-09-23T18:11:43.926Z,98659.84
2022-09-23T18:14:18.972Z,98662.69
2022-09-23T18:16:52.547Z,98666.25
2022-09-23T18:19:23.302Z,98669.84
2022-09-23T18:21:54.638Z,98666.53
2022-09-23T18:24:32.813Z,98665.69
2022-09-23T18:27:01.841Z,98665.88
2022-09-23T18:29:31.701Z,98668.72
2022-09-23T18:31:59.398Z,98667.97
2022-09-23T18:34:31.485Z,98672.53
2022-09-23T18:36:58.425Z,98676.22
2022-09-23T18:39:25.736Z,98673.88
2022-09-23T18:41:52.869Z,98676.69
2022-09-23T18:44:20.084Z,98674.22
2022-09-23T18:46:47.000Z,98669.97
2022-09-23T18:49:32.640Z,98674.50
2022-09-23T18:51:59.746Z,98673.91
2022-09-23T18:54:29.257Z,98682.94
2022-09-23T18:56:56.809Z,98678.66
2022-09-23T18:59:28.011Z,98685.03
2022-09-23T19:01:59.564Z,98675.50
2022-09-23T19:04:27.631Z,98684.44
2022-09-23T19:06:56.623Z,98680.25
2022-09-23T19:09:24.595Z,98686.53
2022-09-23T19:11:53.417Z,98682.22
2022-09-23T19:14:20.768Z,98686.03
2022-09-23T19:16:51.652Z,98686.09
2022-09-23T19:19:18.644Z,98688.81
2022-09-23T19:21:45.709Z,98681.13
2022-09-23T19:24:15.986Z,98678.72
2022-09-23T19:26:44.446Z,98674.41
2022-09-23T19:29:19.435Z,98676.28
2022-09-23T19:31:46.809Z,98672.00
2022-09-23T19:34:24.811Z,98666.69
2022-09-23T19:36:52.970Z,98664.03
2022-09-23T19:39:27.651Z,98668.59
2022-09-23T19:41:58.990Z,98663.47
2022-09-23T19:44:27.236Z,98664.59
2022-09-23T19:46:57.271Z,98669.41
2022-09-23T19:49:26.147Z,98666.09
2022-09-23T19:51:56.419Z,98671.72
2022-09-23T19:54:27.088Z,98668.56
2022-09-23T19:56:55.506Z,98663.53
2022-09-23T19:59:22.785Z,98670.81
2022-09-23T20:01:54.606Z,98660.28
2022-09-23T20:04:22.056Z,98666.56
2022-09-23T20:06:49.668Z,98662.34
2022-09-23T20:09:16.656Z,98668.78
2022-09-23T20:11:44.302Z,98664.50
2022-09-23T20:14:11.999Z,98662.81
2022-09-23T20:16:40.737Z,98660.22
2022-09-23T20:19:09.895Z,98662.22
2022-09-23T20:21:37.633Z,98664.06
2022-09-23T20:24:06.487Z,98664.25
2022-09-23T20:26:52.144Z,98664.25
2022-09-23T20:29:19.407Z,98661.88
2022-09-23T20:31:47.358Z,98658.69
2022-09-23T20:34:14.434Z,98659.72
2022-09-23T20:36:41.799Z,98662.34
2022-09-23T20:39:10.286Z,98654.31
2022-09-23T20:41:39.337Z,98650.00
2022-09-23T20:44:16.768Z,98655.53
2022-09-23T20:46:48.941Z,98653.13
2022-09-23T20:49:17.878Z,98648.78
2022-09-23T20:51:47.661Z,98647.91
2022-09-23T20:54:16.890Z,98641.09
2022-09-23T20:56:43.774Z,98647.31
2022-09-23T20:59:14.988Z,98644.66
2022-09-23T21:01:43.403Z,98644.84
2022-09-23T21:04:10.859Z,98643.22
2022-09-23T21:06:39.691Z,98640.66
2022-09-23T21:09:08.332Z,98641.78
2022-09-23T21:11:35.241Z,98649.94
2022-09-23T21:14:02.664Z,98654.47
2022-09-23T21:16:30.683Z,98650.19
2022-09-23T21:18:58.856Z,98643.44
2022-09-23T21:21:26.564Z,98646.00
2022-09-23T21:23:53.649Z,98638.81
2022-09-23T21:26:24.044Z,98638.91
2022-09-23T21:28:57.755Z,98641.78
2022-09-23T21:31:38.668Z,98641.03
2022-09-23T21:34:09.015Z,98643.66
2022-09-23T21:36:39.788Z,98636.84
2022-09-23T21:39:09.349Z,98637.25
2022-09-23T21:41:36.798Z,98631.88
2022-09-23T21:44:04.833Z,98628.38
2022-09-23T21:46:33.860Z,98624.25
2022-09-23T21:49:03.570Z,98626.81
2022-09-23T21:51:40.799Z,98627.84
2022-09-23T21:54:16.011Z,98624.09
2022-09-23T21:56:44.390Z,98628.47
2022-09-23T21:59:11.629Z,98632.88
2022-09-23T22:01:44.448Z,98619.72
2022-09-23T22:04:18.968Z,98621.69
2022-09-23T22:06:46.751Z,98619.13
2022-09-23T22:09:18.498Z,98617.59
2022-09-23T22:12:04.621Z,98622.97
2022-09-23T22:14:31.902Z,98618.94
2022-09-23T22:17:02.571Z,98621.66
2022-09-23T22:19:42.990Z,98620.75
2022-09-23T22:22:17.738Z,98622.06
2022-09-23T22:24:47.954Z,98624.00
2022-09-23T22:27:19.684Z,98623.25
2022-09-23T22:30:05.878Z,98620.59
2022-09-23T22:32:43.895Z,98621.44
2022-09-23T22:35:18.712Z,98622.31
2022-09-23T22:37:47.414Z,98619.97
2022-09-23T22:40:15.717Z,98622.78
2022-09-23T22:42:43.779Z,98620.13
2022-09-23T22:45:12.705Z,98618.44
2022-09-23T22:47:45.268Z,98615.00
2022-09-23T22:50:14.660Z,98612.78
2022-09-23T22:52:41.601Z,98610.34
2022-09-23T22:55:09.406Z,98604.38
2022-09-23T22:57:37.497Z,98603.69
2022-09-23T23:00:07.335Z,98596.44
2022-09-23T23:02:34.956Z,98605.16
2022-09-23T23:05:02.243Z,98604.44
2022-09-23T23:07:29.078Z,98597.38
2022-09-23T23:09:56.260Z,98594.03
2022-09-23T23:12:24.244Z,98588.03
2022-09-23T23:14:51.086Z,98599.47
2022-09-23T23:17:18.784Z,98597.78
2022-09-23T23:19:46.069Z,98595.13
2022-09-23T23:22:13.078Z,98604.94
2022-09-23T23:24:40.263Z,98598.06
2022-09-23T23:27:07.340Z,98594.66
2022-09-23T23:29:34.290Z,98599.81
2022-09-23T23:32:01.223Z,98603.38
2022-09-23T23:34:28.562Z,98602.38
2022-09-23T23:36:55.811Z,98598.06
2022-09-23T23:39:25.216Z,98593.00
2022-09-23T23:41:57.682Z,98584.25
2022-09-23T23:44:26.542Z,98591.09
2022-09-23T23:46:55.136Z,98595.44
2022-09-23T23:49:22.985Z,98592.88
2022-09-23T23:51:49.827Z,98590.38
2022-09-23T23:54:16.905Z,98590.56
2022-09-23T23:56:44.108Z,98588.00
2022-09-23T23:59:11.353Z,98588.13
